createdAt,value
2022-09-11T00:02:17.267Z,13.24
2022-09-11T00:04:46.011Z,13.23
2022-09-11T00:08:33.799Z,13.19
2022-09-11T00:11:10.461Z,13.20
2022-09-11T00:13:42.130Z,13.19
2022-09-11T00:16:34.515Z,13.16
2022-09-11T00:19:09.249Z,13.16
2022-09-11T00:21:40.577Z,13.17
2022-09-11T00:24:10.670Z,13.17
2022-09-11T00:26:42.869Z,13.17
2022-09-11T00:29:12.264Z,13.17
2022-09-11T00:31:44.320Z,13.16
2022-09-11T00:34:13.300Z,13.15
2022-09-11T00:36:44.701Z,13.12
2022-09-11T00:39:14.802Z,13.11
2022-09-11T00:41:46.504Z,13.08
2022-09-11T00:44:35.445Z,13.05
2022-09-11T00:47:12.046Z,13.03
2022-09-11T00:49:51.635Z,13.01
2022-09-11T00:52:36.836Z,13.00
2022-09-11T00:55:08.373Z,13.01
2022-09-11T00:57:52.482Z,12.99
2022-09-11T01:00:23.966Z,12.96
2022-09-11T01:02:55.403Z,12.94
2022-09-11T01:06:29.384Z,12.94
2022-09-11T01:08:59.861Z,12.96
2022-09-11T01:12:07.405Z,12.95
2022-09-11T01:14:56.536Z,12.93
2022-09-11T01:17:38.252Z,12.89
2022-09-11T01:20:25.655Z,12.88
2022-09-11T01:23:33.517Z,12.88
2022-09-11T01:26:12.457Z,12.89
2022-09-11T01:28:52.427Z,12.91
2022-09-11T01:31:27.314Z,12.93
2022-09-11T01:34:06.405Z,12.93
2022-09-11T01:36:45.517Z,12.92
2022-09-11T01:39:22.860Z,12.93
2022-09-11T01:42:04.202Z,12.93
2022-09-11T01:44:42.160Z,12.92
2022-09-11T01:47:13.199Z,12.92
2022-09-11T01:50:15.400Z,12.92
2022-09-11T01:53:06.441Z,12.92
2022-09-11T01:55:45.980Z,12.94
2022-09-11T01:58:32.171Z,12.96
2022-09-11T02:01:18.786Z,12.99
2022-09-11T02:04:09.101Z,13.01
2022-09-11T02:06:59.702Z,13.03
2022-09-11T02:09:37.868Z,13.03
2022-09-11T02:12:11.791Z,13.09
2022-09-11T02:14:48.933Z,13.10
2022-09-11T02:17:26.534Z,13.13
2022-09-11T02:20:00.142Z,13.14
2022-09-11T02:22:31.430Z,13.15
2022-09-11T02:25:03.377Z,13.13
2022-09-11T02:27:34.042Z,13.15
2022-09-11T02:30:03.289Z,13.12
2022-09-11T02:32:38.004Z,13.12
2022-09-11T02:35:08.680Z,13.14
2022-09-11T02:38:11.976Z,13.12
2022-09-11T02:40:47.840Z,13.12
2022-09-11T02:43:23.129Z,13.12
2022-09-11T02:46:24.394Z,13.14
2022-09-11T02:49:21.757Z,13.17
2022-09-11T02:52:18.884Z,13.18
2022-09-11T02:55:08.492Z,13.16
2022-09-11T02:58:07.874Z,13.10
2022-09-11T03:00:38.079Z,13.06
2022-09-11T03:03:07.974Z,13.05
2022-09-11T03:05:40.814Z,13.03
2022-09-11T03:08:10.298Z,13.02
2022-09-11T03:10:40.351Z,12.99
2022-09-11T03:13:11.202Z,13.00
2022-09-11T03:15:44.022Z,13.00
2022-09-11T03:18:16.989Z,12.99
2022-09-11T03:20:50.177Z,12.98
2022-09-11T03:23:19.735Z,12.96
2022-09-11T03:25:51.923Z,12.96
2022-09-11T03:28:23.128Z,12.95
2022-09-11T03:30:55.634Z,12.92
2022-09-11T03:33:26.804Z,12.91
2022-09-11T03:35:55.360Z,12.90
2022-09-11T03:38:24.936Z,12.89
2022-09-11T03:40:55.736Z,12.89
2022-09-11T03:43:25.600Z,12.87
2022-09-11T03:45:56.190Z,12.84
2022-09-11T03:48:28.148Z,12.83
2022-09-11T03:50:58.175Z,12.80
2022-09-11T03:53:28.874Z,12.79
2022-09-11T03:56:01.551Z,12.76
2022-09-11T03:58:32.363Z,12.72
2022-09-11T04:01:08.402Z,12.70
2022-09-11T04:03:39.595Z,12.68
2022-09-11T04:06:12.592Z,12.69
2022-09-11T04:08:42.861Z,12.68
2022-09-11T04:11:16.337Z,12.67
2022-09-11T04:13:46.560Z,12.68
2022-09-11T04:16:19.418Z,12.68
2022-09-11T04:18:54.676Z,12.66
2022-09-11T04:21:24.865Z,12.64
2022-09-11T04:23:56.968Z,12.63
2022-09-11T04:26:31.815Z,12.62
2022-09-11T04:29:14.878Z,12.59
2022-09-11T04:31:46.244Z,12.59
2022-09-11T04:34:16.069Z,12.58
2022-09-11T04:36:46.842Z,12.57
2022-09-11T04:39:23.301Z,12.57
2022-09-11T04:41:54.932Z,12.56
2022-09-11T04:44:26.808Z,12.57
2022-09-11T04:46:59.599Z,12.56
2022-09-11T04:49:30.358Z,12.56
2022-09-11T04:52:06.286Z,12.59
2022-09-11T04:54:36.000Z,12.61
2022-09-11T04:57:09.570Z,12.59
2022-09-11T04:59:43.628Z,12.60
2022-09-11T05:02:15.743Z,12.57
2022-09-11T05:04:50.479Z,12.54
2022-09-11T05:07:19.659Z,12.52
2022-09-11T05:09:50.267Z,12.47
2022-09-11T05:12:22.010Z,12.44
2022-09-11T05:14:53.577Z,12.45
2022-09-11T05:17:24.482Z,12.44
2022-09-11T05:19:56.467Z,12.46
2022-09-11T05:22:26.479Z,12.48
2022-09-11T05:24:58.762Z,12.50
2022-09-11T05:27:28.191Z,12.51
2022-09-11T05:30:01.148Z,12.52
2022-09-11T05:32:31.584Z,12.55
2022-09-11T05:35:01.862Z,12.57
2022-09-11T05:37:30.854Z,12.59
2022-09-11T05:40:02.286Z,12.63
2022-09-11T05:42:32.029Z,12.69
2022-09-11T05:45:04.092Z,12.75
2022-09-11T05:47:34.383Z,12.82
2022-09-11T05:50:03.663Z,12.87
2022-09-11T05:52:35.334Z,12.92
2022-09-11T05:55:05.047Z,12.98
2022-09-11T05:57:37.017Z,13.03
2022-09-11T06:00:06.521Z,13.08
2022-09-11T06:02:39.906Z,13.09
2022-09-11T06:05:09.521Z,13.07
2022-09-11T06:07:39.833Z,13.03
2022-09-11T06:10:09.432Z,13.00
2022-09-11T06:12:39.204Z,13.01
2022-09-11T06:15:24.934Z,13.03
2022-09-11T06:18:00.199Z,13.12
2022-09-11T06:20:30.640Z,13.23
2022-09-11T06:23:02.637Z,13.36
2022-09-11T06:25:37.361Z,13.53
2022-09-11T06:28:07.051Z,13.63
2022-09-11T06:30:36.740Z,13.71
2022-09-11T06:33:05.571Z,13.77
2022-09-11T06:35:36.251Z,13.75
2022-09-11T06:38:07.740Z,13.75
2022-09-11T06:40:39.167Z,13.72
2022-09-11T06:43:09.370Z,13.70
2022-09-11T06:45:41.659Z,13.70
2022-09-11T06:48:12.908Z,13.70
2022-09-11T06:50:44.966Z,13.72
2022-09-11T06:53:16.148Z,13.75
2022-09-11T06:55:54.428Z,13.83
2022-09-11T06:58:25.917Z,13.92
2022-09-11T07:00:57.973Z,13.98
2022-09-11T07:03:28.519Z,14.03
2022-09-11T07:07:12.898Z,14.07
2022-09-11T07:09:44.637Z,14.09
2022-09-11T07:12:15.108Z,14.09
2022-09-11T07:14:46.661Z,14.09
2022-09-11T07:17:19.285Z,14.13
2022-09-11T07:19:50.008Z,14.20
2022-09-11T07:22:20.164Z,14.28
2022-09-11T07:24:53.012Z,14.40
2022-09-11T07:27:22.326Z,14.49
2022-09-11T07:29:54.373Z,14.62
2022-09-11T07:32:23.129Z,14.80
2022-09-11T07:34:51.853Z,14.93
2022-09-11T07:37:20.537Z,15.08
2022-09-11T07:39:49.433Z,15.23
2022-09-11T07:42:21.067Z,15.33
2022-09-11T07:44:51.106Z,15.38
2022-09-11T07:47:19.932Z,15.45
2022-09-11T07:49:51.518Z,15.53
2022-09-11T07:52:20.970Z,15.61
2022-09-11T07:54:52.966Z,15.69
2022-09-11T07:57:26.255Z,15.74
2022-09-11T07:59:59.326Z,15.75
2022-09-11T08:02:28.785Z,15.73
2022-09-11T08:04:58.564Z,15.74
2022-09-11T08:07:32.687Z,15.77
2022-09-11T08:10:26.167Z,15.83
2022-09-11T08:12:58.063Z,15.89
2022-09-11T08:15:30.104Z,15.94
2022-09-11T08:17:59.646Z,16.02
2022-09-11T08:20:32.843Z,16.17
2022-09-11T08:23:02.265Z,16.35
2022-09-11T08:25:37.435Z,16.67
2022-09-11T08:28:07.660Z,17.04
2022-09-11T08:30:40.996Z,17.35
2022-09-11T08:33:13.213Z,17.77
2022-09-11T08:35:47.191Z,18.31
2022-09-11T08:38:16.744Z,19.04
2022-09-11T08:40:47.500Z,20.18
2022-09-11T08:43:32.827Z,21.56
2022-09-11T08:46:09.687Z,22.28
2022-09-11T08:49:00.431Z,22.81
2022-09-11T08:51:29.032Z,22.98
2022-09-11T08:54:02.912Z,23.02
2022-09-11T08:56:36.578Z,23.86
2022-09-11T08:59:35.648Z,24.62
2022-09-11T09:02:24.258Z,25.59
2022-09-11T09:05:06.621Z,25.60
2022-09-11T09:07:51.944Z,24.64
2022-09-11T09:10:26.974Z,23.76
2022-09-11T09:13:10.470Z,22.92
2022-09-11T09:15:49.476Z,22.28
2022-09-11T09:18:21.461Z,21.84
2022-09-11T09:21:15.968Z,21.52
2022-09-11T09:23:58.113Z,21.31
2022-09-11T09:26:38.184Z,21.05
2022-09-11T09:29:38.239Z,20.87
2022-09-11T09:32:21.538Z,20.57
2022-09-11T09:34:55.827Z,20.45
2022-09-11T09:37:27.021Z,20.32
2022-09-11T09:40:01.348Z,20.33
2022-09-11T09:43:13.182Z,20.41
2022-09-11T09:46:01.508Z,20.67
2022-09-11T09:48:46.769Z,20.98
2022-09-11T09:51:24.976Z,21.39
2022-09-11T09:54:01.817Z,21.85
2022-09-11T09:56:35.287Z,22.29
2022-09-11T09:59:18.578Z,22.44
2022-09-11T10:01:51.217Z,22.47
2022-09-11T10:04:24.666Z,22.74
2022-09-11T10:07:23.060Z,22.58
2022-09-11T10:10:03.775Z,22.31
2022-09-11T10:12:33.917Z,22.01
2022-09-11T10:15:05.812Z,22.23
2022-09-11T10:17:38.907Z,23.43
2022-09-11T10:20:18.898Z,24.35
2022-09-11T10:22:49.198Z,25.87
2022-09-11T10:25:27.047Z,27.31
2022-09-11T10:28:09.430Z,28.48
2022-09-11T10:30:45.369Z,29.43
2022-09-11T10:33:37.484Z,29.63
2022-09-11T10:36:10.347Z,28.89
2022-09-11T10:38:45.304Z,28.91
2022-09-11T10:41:25.508Z,28.98
2022-09-11T10:44:14.670Z,29.79
2022-09-11T10:46:47.634Z,30.31
2022-09-11T10:49:22.489Z,30.36
2022-09-11T10:52:22.655Z,30.18
2022-09-11T10:55:06.800Z,29.82
2022-09-11T10:57:48.007Z,29.53
2022-09-11T11:00:25.822Z,29.51
2022-09-11T11:03:11.425Z,29.01
2022-09-11T11:06:33.106Z,28.67
2022-09-11T11:09:35.405Z,28.01
2022-09-11T11:12:11.247Z,27.69
2022-09-11T11:15:17.778Z,27.60
2022-09-11T11:18:12.911Z,27.54
2022-09-11T11:20:54.674Z,27.84
2022-09-11T11:23:24.659Z,27.91
2022-09-11T11:26:08.156Z,27.09
2022-09-11T11:28:59.075Z,26.59
2022-09-11T11:31:46.089Z,26.78
2022-09-11T11:34:44.736Z,27.23
2022-09-11T11:37:21.760Z,27.63
2022-09-11T11:40:10.566Z,27.78
2022-09-11T11:42:55.896Z,27.78
2022-09-11T11:45:38.223Z,27.81
2022-09-11T11:48:38.878Z,27.85
2022-09-11T11:51:10.993Z,27.61
2022-09-11T11:54:01.461Z,27.26
2022-09-11T11:56:50.764Z,26.56
2022-09-11T11:59:33.188Z,26.01
2022-09-11T12:02:10.409Z,25.83
2022-09-11T12:04:43.492Z,25.90
2022-09-11T12:07:26.124Z,26.17
2022-09-11T12:09:58.382Z,26.36
2022-09-11T12:12:34.355Z,26.48
2022-09-11T12:15:12.094Z,26.61
2022-09-11T12:17:44.300Z,26.43
2022-09-11T12:20:17.528Z,26.32
2022-09-11T12:22:50.502Z,26.15
2022-09-11T12:25:19.420Z,25.74
2022-09-11T12:27:50.763Z,24.95
2022-09-11T12:30:22.062Z,24.23
2022-09-11T12:33:00.494Z,23.69
2022-09-11T12:35:45.619Z,23.23
2022-09-11T12:38:28.911Z,23.00
2022-09-11T12:41:07.803Z,22.97
2022-09-11T12:43:36.511Z,23.15
2022-09-11T12:46:28.511Z,23.33
2022-09-11T12:49:27.886Z,23.38
2022-09-11T12:52:01.910Z,23.67
2022-09-11T12:54:41.474Z,24.01
2022-09-11T12:57:35.709Z,24.05
2022-09-11T13:00:11.809Z,23.93
2022-09-11T13:02:47.106Z,24.07
2022-09-11T13:05:26.526Z,24.13
2022-09-11T13:08:01.250Z,24.09
2022-09-11T13:10:37.963Z,24.05
2022-09-11T13:13:33.533Z,23.99
2022-09-11T13:16:37.547Z,23.91
2022-09-11T13:19:15.252Z,23.85
2022-09-11T13:21:46.195Z,24.01
2022-09-11T13:24:28.182Z,23.75
2022-09-11T13:27:03.528Z,23.27
2022-09-11T13:29:43.817Z,23.17
2022-09-11T13:32:18.039Z,23.41
2022-09-11T13:34:58.234Z,23.58
2022-09-11T13:37:32.699Z,23.67
2022-09-11T13:40:05.413Z,23.75
2022-09-11T13:42:36.754Z,23.89
2022-09-11T13:45:08.915Z,24.03
2022-09-11T13:47:41.652Z,24.11
2022-09-11T13:50:16.051Z,24.09
2022-09-11T13:52:46.474Z,24.06
2022-09-11T13:55:23.114Z,23.93
2022-09-11T13:58:03.347Z,23.85
2022-09-11T14:00:43.273Z,23.71
2022-09-11T14:03:21.151Z,23.58
2022-09-11T14:05:57.291Z,23.45
2022-09-11T14:08:29.187Z,23.05
2022-09-11T14:11:08.089Z,22.58
2022-09-11T14:13:49.154Z,22.12
2022-09-11T14:16:31.827Z,21.72
2022-09-11T14:19:14.514Z,21.39
2022-09-11T14:21:47.020Z,21.13
2022-09-11T14:25:03.115Z,20.81
2022-09-11T14:27:37.705Z,20.57
2022-09-11T14:30:34.797Z,20.41
2022-09-11T14:33:17.894Z,20.26
2022-09-11T14:35:49.816Z,20.06
2022-09-11T14:38:21.523Z,19.91
2022-09-11T14:40:58.932Z,19.75
2022-09-11T14:43:33.008Z,19.65
2022-09-11T14:46:03.618Z,19.67
2022-09-11T14:48:35.533Z,19.72
2022-09-11T14:51:11.255Z,19.84
2022-09-11T14:53:43.801Z,19.96
2022-09-11T14:56:17.419Z,20.07
2022-09-11T14:58:46.873Z,20.26
2022-09-11T15:01:17.060Z,20.45
2022-09-11T15:03:47.680Z,20.58
2022-09-11T15:06:45.138Z,20.66
2022-09-11T15:09:14.114Z,20.82
2022-09-11T15:11:44.356Z,20.89
2022-09-11T15:14:32.137Z,20.82
2022-09-11T15:17:09.158Z,20.75
2022-09-11T15:19:41.686Z,20.66
2022-09-11T15:22:12.047Z,20.55
2022-09-11T15:24:41.472Z,20.46
2022-09-11T15:27:10.796Z,20.35
2022-09-11T15:29:43.126Z,20.25
2022-09-11T15:32:13.361Z,20.16
2022-09-11T15:34:45.741Z,20.08
2022-09-11T15:37:19.130Z,20.03
2022-09-11T15:39:51.258Z,19.89
2022-09-11T15:42:21.127Z,19.68
2022-09-11T15:44:52.624Z,19.46
2022-09-11T15:47:22.460Z,19.31
2022-09-11T15:49:51.906Z,19.22
2022-09-11T15:52:20.947Z,19.14
2022-09-11T15:54:51.576Z,19.14
2022-09-11T15:57:20.798Z,19.15
2022-09-11T15:59:54.264Z,19.07
2022-09-11T16:02:26.904Z,18.94
2022-09-11T16:04:56.725Z,18.81
2022-09-11T16:07:32.075Z,18.68
2022-09-11T16:10:01.201Z,18.54
2022-09-11T16:12:31.637Z,18.41
2022-09-11T16:15:02.069Z,18.26
2022-09-11T16:17:33.103Z,18.11
2022-09-11T16:20:02.872Z,18.00
2022-09-11T16:22:31.682Z,17.89
2022-09-11T16:25:02.595Z,17.74
2022-09-11T16:27:35.116Z,17.60
2022-09-11T16:32:54.923Z,17.34
2022-09-11T16:35:24.211Z,17.18
2022-09-11T16:37:55.244Z,17.03
2022-09-11T16:40:24.116Z,16.91
2022-09-11T16:42:55.686Z,16.83
2022-09-11T16:45:25.083Z,16.69
2022-09-11T16:47:57.546Z,16.60
2022-09-11T16:50:27.143Z,16.49
2022-09-11T16:52:55.927Z,16.37
2022-09-11T16:55:26.069Z,16.24
2022-09-11T16:57:55.509Z,16.11
2022-09-11T17:00:26.626Z,15.97
2022-09-11T17:02:56.652Z,15.82
2022-09-11T17:05:26.039Z,15.63
2022-09-11T17:07:56.284Z,15.52
2022-09-11T17:10:25.553Z,15.43
2022-09-11T17:12:57.839Z,15.29
2022-09-11T17:15:28.857Z,15.14
2022-09-11T17:17:58.151Z,14.96
2022-09-11T17:20:26.886Z,14.81
2022-09-11T17:22:58.202Z,14.72
2022-09-11T17:25:27.519Z,14.67
2022-09-11T17:27:56.754Z,14.68
2022-09-11T17:30:25.642Z,14.62
2022-09-11T17:32:55.006Z,14.53
2022-09-11T17:35:25.006Z,14.47
2022-09-11T17:37:57.600Z,14.38
2022-09-11T17:40:27.228Z,14.32
2022-09-11T17:42:58.238Z,14.28
2022-09-11T17:45:28.668Z,14.27
2022-09-11T17:47:58.312Z,14.24
2022-09-11T17:50:29.146Z,14.23
2022-09-11T17:52:59.208Z,14.23
2022-09-11T17:55:30.586Z,14.25
2022-09-11T17:58:00.071Z,14.23
2022-09-11T18:00:32.562Z,14.15
2022-09-11T18:03:02.670Z,14.06
2022-09-11T18:05:32.600Z,13.97
2022-09-11T18:08:03.861Z,13.86
2022-09-11T18:10:34.854Z,13.82
2022-09-11T18:13:03.912Z,13.73
2022-09-11T18:15:35.016Z,13.65
2022-09-11T18:18:05.734Z,13.58
2022-09-11T18:20:37.458Z,13.49
2022-09-11T18:23:06.640Z,13.41
2022-09-11T18:25:40.080Z,13.37
2022-09-11T18:28:10.024Z,13.34
2022-09-11T18:30:42.211Z,13.38
2022-09-11T18:33:14.268Z,13.40
2022-09-11T18:35:46.677Z,13.33
2022-09-11T18:38:17.517Z,13.25
2022-09-11T18:40:47.866Z,13.19
2022-09-11T18:43:17.466Z,13.16
2022-09-11T18:45:47.516Z,13.14
2022-09-11T18:48:17.406Z,13.14
2022-09-11T18:50:49.097Z,13.11
2022-09-11T18:53:18.476Z,13.06
2022-09-11T18:55:48.388Z,12.94
2022-09-11T18:58:17.847Z,12.91
2022-09-11T19:00:49.360Z,12.90
2022-09-11T19:03:23.396Z,12.94
2022-09-11T19:05:53.908Z,12.91
2022-09-11T19:08:23.138Z,12.93
2022-09-11T19:10:52.958Z,12.92
2022-09-11T19:13:26.424Z,12.92
2022-09-11T19:16:00.412Z,12.86
2022-09-11T19:18:30.438Z,12.86
2022-09-11T19:21:04.805Z,12.88
2022-09-11T19:23:36.040Z,12.85
2022-09-11T19:26:12.514Z,12.80
2022-09-11T19:28:44.047Z,12.83
2022-09-11T19:31:15.642Z,12.84
2022-09-11T19:33:46.138Z,12.88
2022-09-11T19:36:20.958Z,12.91
2022-09-11T19:38:53.361Z,12.87
2022-09-11T19:41:26.357Z,12.89
2022-09-11T19:43:55.661Z,12.92
2022-09-11T19:46:29.233Z,12.90
2022-09-11T19:49:00.968Z,12.74
2022-09-11T19:51:33.123Z,12.68
2022-09-11T19:54:04.662Z,12.70
2022-09-11T19:56:38.444Z,12.71
2022-09-11T19:59:10.762Z,12.76
2022-09-11T20:01:40.279Z,12.81
2022-09-11T20:04:14.119Z,12.78
2022-09-11T20:09:30.882Z,12.73
2022-09-11T20:12:02.148Z,12.70
2022-09-11T20:14:35.420Z,12.70
2022-09-11T20:17:08.795Z,12.69
2022-09-11T20:19:40.997Z,12.67
2022-09-11T20:22:12.062Z,12.60
2022-09-11T20:24:43.370Z,12.54
2022-09-11T20:27:12.149Z,12.49
2022-09-11T20:29:43.586Z,12.51
2022-09-11T20:32:13.517Z,12.60
2022-09-11T20:34:42.046Z,12.56
2022-09-11T20:37:13.961Z,12.51
2022-09-11T20:39:42.732Z,12.51
2022-09-11T20:42:14.568Z,12.50
2022-09-11T20:44:47.191Z,12.41
2022-09-11T20:47:18.691Z,12.37
2022-09-11T20:49:50.528Z,12.35
2022-09-11T20:52:19.337Z,12.33
2022-09-11T20:54:50.883Z,12.28
2022-09-11T20:57:19.957Z,12.16
2022-09-11T20:59:50.517Z,12.09
2022-09-11T21:02:19.525Z,12.05
2022-09-11T21:04:50.479Z,12.07
2022-09-11T21:07:21.333Z,12.03
2022-09-11T21:09:50.679Z,12.02
2022-09-11T21:12:20.184Z,12.07
2022-09-11T21:14:50.675Z,12.06
2022-09-11T21:17:21.271Z,12.06
2022-09-11T21:19:57.221Z,12.03
2022-09-11T21:22:27.428Z,11.98
2022-09-11T21:25:01.088Z,11.97
2022-09-11T21:27:32.487Z,11.94
2022-09-11T21:30:01.144Z,11.84
2022-09-11T21:32:30.798Z,11.85
2022-09-11T21:35:03.152Z,11.90
2022-09-11T21:37:32.909Z,11.96
2022-09-11T21:40:03.121Z,11.97
2022-09-11T21:42:32.469Z,11.99
2022-09-11T21:45:03.273Z,12.02
2022-09-11T21:47:32.051Z,12.03
2022-09-11T21:50:02.514Z,12.01
2022-09-11T21:52:31.515Z,12.05
2022-09-11T21:55:00.898Z,11.97
2022-09-11T21:57:31.641Z,11.94
2022-09-11T22:00:01.968Z,12.02
2022-09-11T22:02:31.395Z,12.10
2022-09-11T22:05:00.208Z,12.11
2022-09-11T22:07:56.570Z,12.04
2022-09-11T22:10:28.592Z,12.01
2022-09-11T22:12:57.253Z,12.03
2022-09-11T22:15:27.484Z,11.98
2022-09-11T22:17:56.139Z,12.02
2022-09-11T22:20:25.194Z,12.02
2022-09-11T22:22:56.790Z,12.01
2022-09-11T22:25:28.796Z,12.08
2022-09-11T22:27:57.579Z,12.16
2022-09-11T22:30:28.320Z,12.19
2022-09-11T22:32:59.579Z,12.22
2022-09-11T22:35:36.059Z,12.23
2022-09-11T22:38:06.802Z,12.15
2022-09-11T22:40:38.570Z,12.19
2022-09-11T22:43:08.642Z,12.18
2022-09-11T22:45:37.754Z,12.07
2022-09-11T22:48:09.907Z,12.05
2022-09-11T22:50:38.595Z,12.00
2022-09-11T22:53:09.105Z,12.00
2022-09-11T22:55:43.599Z,11.91
2022-09-11T22:58:14.038Z,11.92
2022-09-11T23:00:44.078Z,11.95
2022-09-11T23:03:15.869Z,11.85
2022-09-11T23:06:05.184Z,11.76
2022-09-11T23:08:45.650Z,11.68
2022-09-11T23:11:20.161Z,11.67
2022-09-11T23:13:52.766Z,11.65
2022-09-11T23:16:24.553Z,11.71
2022-09-11T23:19:01.989Z,11.78
2022-09-11T23:21:33.502Z,11.68
2022-09-11T23:24:03.055Z,11.63
2022-09-11T23:26:32.181Z,11.67
2022-09-11T23:29:01.971Z,11.71
2022-09-11T23:31:33.649Z,11.65
2022-09-11T23:34:07.333Z,11.65
2022-09-11T23:36:36.728Z,11.60
2022-09-11T23:39:07.187Z,11.52
2022-09-11T23:41:38.398Z,11.42
2022-09-11T23:44:07.826Z,11.33
2022-09-11T23:46:36.924Z,11.32
2022-09-11T23:49:07.218Z,11.31
2022-09-11T23:51:37.213Z,11.27
2022-09-11T23:54:07.622Z,11.21
2022-09-11T23:56:37.124Z,11.12
2022-09-11T23:59:07.518Z,11.06
